RYR7MC LIMC-LIBR
Flight info
| Callsign | RYR7MC |
|---|---|
| Flight time | 1h 27m |
| Altitude | 35000 |
| Route | VAKON DCT IBUPU DCT NEVMO DCT LISKO DCT UVOKA/N0342F190 L612 DOLON |
| Aircraft | B38M/M-SDE1FGHILORVWXY/HB1 |
Departure
| Time | 2026-04-15 10:14 |
|---|---|
| Airport | Milan Malpensa International Airport (LIMC) |
Arrival
| Time | 2026-04-15 11:41 |
|---|---|
| Airport | Brindisi Airport (LIBR) |
| Time | Latitude | Longitude | Altitude | Speed | Heading |
|---|---|---|---|---|---|
| 2026-04-15 09:33 | 45.62876 | 8.71581 | 750 ft | 0 kts | 169° |
| 2026-04-15 09:56 | 45.62887 | 8.71578 | 750 ft | 4 kts | 172° |
| 2026-04-15 09:56 | 45.62914 | 8.71573 | 752 ft | 4 kts | 166° |
| 2026-04-15 09:56 | 45.62939 | 8.71535 | 753 ft | 1 kts | 102° |
| 2026-04-15 09:57 | 45.62938 | 8.71554 | 750 ft | 4 kts | 88° |
| 2026-04-15 09:57 | 45.62943 | 8.71592 | 750 ft | 4 kts | 77° |
| 2026-04-15 09:57 | 45.62945 | 8.71609 | 753 ft | 1 kts | 79° |
| 2026-04-15 10:00 | 45.62946 | 8.71611 | 752 ft | 1 kts | 79° |
| 2026-04-15 10:00 | 45.62949 | 8.71634 | 752 ft | 3 kts | 78° |
| 2026-04-15 10:01 | 45.62952 | 8.71655 | 753 ft | 0 kts | 78° |
| 2026-04-15 10:08 | 45.62954 | 8.71667 | 755 ft | 2 kts | 78° |
| 2026-04-15 10:08 | 45.62959 | 8.71701 | 750 ft | 5 kts | 81° |
| 2026-04-15 10:08 | 45.62941 | 8.71741 | 751 ft | 6 kts | 147° |
| 2026-04-15 10:08 | 45.62871 | 8.71769 | 755 ft | 15 kts | 169° |
| 2026-04-15 10:09 | 45.62735 | 8.71808 | 752 ft | 25 kts | 169° |
| 2026-04-15 10:09 | 45.62543 | 8.71860 | 753 ft | 30 kts | 168° |
| 2026-04-15 10:09 | 45.62353 | 8.71914 | 753 ft | 23 kts | 168° |
| 2026-04-15 10:09 | 45.62197 | 8.71962 | 755 ft | 14 kts | 147° |
| 2026-04-15 10:10 | 45.62186 | 8.72058 | 753 ft | 11 kts | 78° |
| 2026-04-15 10:10 | 45.62202 | 8.72174 | 755 ft | 13 kts | 79° |
| 2026-04-15 10:10 | 45.62222 | 8.72314 | 753 ft | 16 kts | 79° |
| 2026-04-15 10:10 | 45.62246 | 8.72497 | 749 ft | 21 kts | 79° |
| 2026-04-15 10:11 | 45.62273 | 8.72699 | 752 ft | 20 kts | 79° |
| 2026-04-15 10:11 | 45.62300 | 8.72898 | 754 ft | 21 kts | 79° |
| 2026-04-15 10:11 | 45.62253 | 8.73035 | 754 ft | 15 kts | 169° |
| 2026-04-15 10:11 | 45.62146 | 8.73063 | 755 ft | 16 kts | 169° |
| 2026-04-15 10:12 | 45.62027 | 8.73095 | 753 ft | 18 kts | 169° |
| 2026-04-15 10:12 | 45.61897 | 8.73131 | 752 ft | 20 kts | 170° |
| 2026-04-15 10:12 | 45.61760 | 8.73185 | 752 ft | 21 kts | 143° |
| 2026-04-15 10:12 | 45.61669 | 8.73358 | 753 ft | 23 kts | 124° |
| 2026-04-15 10:13 | 45.61587 | 8.73561 | 751 ft | 25 kts | 102° |
| 2026-04-15 10:13 | 45.61648 | 8.73721 | 747 ft | 17 kts | 6° |
| 2026-04-15 10:13 | 45.61771 | 8.73695 | 746 ft | 19 kts | 349° |
| 2026-04-15 10:13 | 45.62003 | 8.73632 | 746 ft | 63 kts | 349° |
| 2026-04-15 10:14 | 45.62642 | 8.73452 | 750 ft | 123 kts | 348° |
| 2026-04-15 10:14 | 45.63649 | 8.73171 | 759 ft | 168 kts | 346° |
| 2026-04-15 10:14 | 45.64814 | 8.72891 | 1229 ft | 175 kts | 351° |
| 2026-04-15 10:14 | 45.66090 | 8.72684 | 1747 ft | 183 kts | 354° |
| 2026-04-15 10:15 | 45.67328 | 8.72648 | 2493 ft | 186 kts | 5° |
| 2026-04-15 10:15 | 45.68555 | 8.73594 | 2666 ft | 209 kts | 51° |
| 2026-04-15 10:15 | 45.68909 | 8.74355 | 3171 ft | 202 kts | 60° |
| 2026-04-15 10:15 | 45.69454 | 8.76308 | 3627 ft | 219 kts | 71° |
| 2026-04-15 10:16 | 45.69941 | 8.78310 | 4519 ft | 213 kts | 71° |
| 2026-04-15 10:16 | 45.70467 | 8.80278 | 5073 ft | 220 kts | 60° |
| 2026-04-15 10:16 | 45.71342 | 8.82135 | 5527 ft | 234 kts | 63° |
| 2026-04-15 10:16 | 45.71611 | 8.84443 | 5989 ft | 237 kts | 105° |
| 2026-04-15 10:17 | 45.70835 | 8.86457 | 6800 ft | 234 kts | 130° |
| 2026-04-15 10:17 | 45.69840 | 8.88328 | 7437 ft | 239 kts | 123° |
| 2026-04-15 10:17 | 45.68948 | 8.90356 | 8096 ft | 243 kts | 121° |
| 2026-04-15 10:17 | 45.68099 | 8.92459 | 8775 ft | 245 kts | 119° |
| 2026-04-15 10:18 | 45.67285 | 8.94610 | 9456 ft | 248 kts | 117° |
| 2026-04-15 10:18 | 45.66501 | 8.96774 | 10140 ft | 249 kts | 116° |
| 2026-04-15 10:18 | 45.65715 | 8.98999 | 10745 ft | 252 kts | 116° |
| 2026-04-15 10:18 | 45.64927 | 9.01264 | 11367 ft | 256 kts | 115° |
| 2026-04-15 10:19 | 45.64300 | 9.03698 | 11733 ft | 270 kts | 103° |
| 2026-04-15 10:19 | 45.63839 | 9.06389 | 11950 ft | 288 kts | 103° |
| 2026-04-15 10:19 | 45.63341 | 9.09243 | 12091 ft | 307 kts | 103° |
| 2026-04-15 10:19 | 45.62807 | 9.12273 | 12290 ft | 322 kts | 103° |
| 2026-04-15 10:20 | 45.62251 | 9.15414 | 12706 ft | 327 kts | 103° |
| 2026-04-15 10:20 | 45.61690 | 9.18573 | 13245 ft | 330 kts | 103° |
| 2026-04-15 10:20 | 45.61122 | 9.21764 | 13753 ft | 333 kts | 103° |
| 2026-04-15 10:20 | 45.60569 | 9.24860 | 14201 ft | 336 kts | 103° |
| 2026-04-15 10:21 | 45.59980 | 9.28162 | 14645 ft | 338 kts | 103° |
| 2026-04-15 10:21 | 45.59394 | 9.31432 | 15084 ft | 341 kts | 103° |
| 2026-04-15 10:21 | 45.58803 | 9.34731 | 15687 ft | 344 kts | 103° |
| 2026-04-15 10:21 | 45.58207 | 9.38050 | 16221 ft | 348 kts | 103° |
| 2026-04-15 10:22 | 45.57599 | 9.41416 | 16825 ft | 352 kts | 103° |
| 2026-04-15 10:22 | 45.56991 | 9.44791 | 17455 ft | 354 kts | 103° |
| 2026-04-15 10:22 | 45.56373 | 9.48211 | 18011 ft | 358 kts | 103° |
| 2026-04-15 10:22 | 45.55780 | 9.51673 | 18530 ft | 361 kts | 102° |
| 2026-04-15 10:23 | 45.55216 | 9.55176 | 18993 ft | 363 kts | 102° |
| 2026-04-15 10:23 | 45.54644 | 9.58694 | 19451 ft | 366 kts | 102° |
| 2026-04-15 10:23 | 45.54063 | 9.62245 | 19905 ft | 368 kts | 102° |
| 2026-04-15 10:23 | 45.53478 | 9.65810 | 20354 ft | 370 kts | 102° |
| 2026-04-15 10:24 | 45.52889 | 9.69390 | 20795 ft | 373 kts | 102° |
| 2026-04-15 10:24 | 45.52294 | 9.73003 | 21323 ft | 375 kts | 102° |
| 2026-04-15 10:24 | 45.51694 | 9.76633 | 21747 ft | 377 kts | 102° |
| 2026-04-15 10:24 | 45.51093 | 9.80263 | 22159 ft | 379 kts | 102° |
| 2026-04-15 10:25 | 45.50494 | 9.83875 | 22571 ft | 381 kts | 102° |
| 2026-04-15 10:25 | 45.49882 | 9.87559 | 22960 ft | 383 kts | 102° |
| 2026-04-15 10:25 | 45.49264 | 9.91267 | 23328 ft | 385 kts | 102° |
| 2026-04-15 10:25 | 45.48643 | 9.94988 | 23705 ft | 387 kts | 102° |
| 2026-04-15 10:26 | 45.48004 | 9.98721 | 24000 ft | 389 kts | 105° |
| 2026-04-15 10:26 | 45.46876 | 10.02203 | 24301 ft | 391 kts | 120° |
| 2026-04-15 10:26 | 45.45520 | 10.05578 | 24542 ft | 394 kts | 118° |
| 2026-04-15 10:26 | 45.44167 | 10.08986 | 24804 ft | 396 kts | 118° |
| 2026-04-15 10:27 | 45.42805 | 10.12380 | 25083 ft | 398 kts | 118° |
| 2026-04-15 10:27 | 45.41422 | 10.15807 | 25356 ft | 400 kts | 118° |
| 2026-04-15 10:27 | 45.40031 | 10.19242 | 25614 ft | 401 kts | 118° |
| 2026-04-15 10:27 | 45.38633 | 10.22691 | 25863 ft | 403 kts | 118° |
| 2026-04-15 10:28 | 45.37228 | 10.26148 | 26107 ft | 405 kts | 117° |
| 2026-04-15 10:28 | 45.35814 | 10.29626 | 26356 ft | 407 kts | 117° |
| 2026-04-15 10:28 | 45.34394 | 10.33112 | 26625 ft | 408 kts | 117° |
| 2026-04-15 10:28 | 45.32969 | 10.36607 | 26888 ft | 410 kts | 117° |
| 2026-04-15 10:29 | 45.31532 | 10.40129 | 27173 ft | 412 kts | 117° |
| 2026-04-15 10:29 | 45.30098 | 10.43636 | 27409 ft | 414 kts | 117° |
| 2026-04-15 10:29 | 45.28647 | 10.47179 | 27648 ft | 415 kts | 117° |
| 2026-04-15 10:29 | 45.27196 | 10.50721 | 27934 ft | 415 kts | 118° |
| 2026-04-15 10:30 | 45.25742 | 10.54265 | 28172 ft | 416 kts | 118° |
| 2026-04-15 10:30 | 45.24281 | 10.57821 | 28363 ft | 418 kts | 118° |
| 2026-04-15 10:30 | 45.22814 | 10.61386 | 28561 ft | 419 kts | 118° |
| 2026-04-15 10:30 | 45.21346 | 10.64952 | 28737 ft | 420 kts | 118° |
| 2026-04-15 10:31 | 45.19868 | 10.68535 | 28918 ft | 421 kts | 118° |
| 2026-04-15 10:31 | 45.18393 | 10.72111 | 29071 ft | 422 kts | 118° |
| 2026-04-15 10:31 | 45.16888 | 10.75686 | 29244 ft | 423 kts | 119° |
| 2026-04-15 10:31 | 45.15363 | 10.79265 | 29401 ft | 424 kts | 119° |
| 2026-04-15 10:32 | 45.13858 | 10.82802 | 29594 ft | 425 kts | 120° |
| 2026-04-15 10:32 | 45.12311 | 10.86435 | 29845 ft | 425 kts | 120° |
| 2026-04-15 10:32 | 45.10801 | 10.89976 | 30041 ft | 427 kts | 120° |
| 2026-04-15 10:32 | 45.09262 | 10.93583 | 30215 ft | 428 kts | 120° |
| 2026-04-15 10:33 | 45.07722 | 10.97189 | 30389 ft | 429 kts | 120° |
| 2026-04-15 10:33 | 45.06172 | 11.00812 | 30537 ft | 430 kts | 120° |
| 2026-04-15 10:33 | 45.04627 | 11.04418 | 30682 ft | 432 kts | 120° |
| 2026-04-15 10:33 | 45.03065 | 11.08058 | 30834 ft | 433 kts | 120° |
| 2026-04-15 10:34 | 45.01501 | 11.11701 | 30984 ft | 435 kts | 120° |
| 2026-04-15 10:34 | 44.99927 | 11.15361 | 31168 ft | 436 kts | 120° |
| 2026-04-15 10:34 | 44.98349 | 11.19025 | 31326 ft | 437 kts | 120° |
| 2026-04-15 10:34 | 44.96766 | 11.22698 | 31508 ft | 439 kts | 120° |
| 2026-04-15 10:35 | 44.95173 | 11.26387 | 31662 ft | 440 kts | 120° |
| 2026-04-15 10:35 | 44.93577 | 11.30079 | 31826 ft | 442 kts | 120° |
| 2026-04-15 10:35 | 44.91978 | 11.33774 | 32006 ft | 444 kts | 119° |
| 2026-04-15 10:35 | 44.90368 | 11.37490 | 32336 ft | 445 kts | 119° |
| 2026-04-15 10:36 | 44.88679 | 11.41165 | 32617 ft | 448 kts | 121° |
| 2026-04-15 10:36 | 44.86973 | 11.44837 | 32970 ft | 448 kts | 120° |
| 2026-04-15 10:36 | 44.85270 | 11.48516 | 33364 ft | 448 kts | 121° |
| 2026-04-15 10:36 | 44.83576 | 11.52177 | 33821 ft | 445 kts | 121° |
| 2026-04-15 10:37 | 44.81885 | 11.55830 | 34210 ft | 445 kts | 121° |
| 2026-04-15 10:37 | 44.80766 | 11.58243 | 34399 ft | 445 kts | 121° |
| 2026-04-15 10:37 | 44.79074 | 11.61888 | 34686 ft | 445 kts | 121° |
| 2026-04-15 10:37 | 44.77385 | 11.65521 | 34972 ft | 445 kts | 121° |
| 2026-04-15 10:38 | 44.75698 | 11.69148 | 35161 ft | 446 kts | 121° |
| 2026-04-15 10:38 | 44.72298 | 11.76444 | 35196 ft | 445 kts | 121° |
| 2026-04-15 10:39 | 44.68910 | 11.83691 | 35152 ft | 443 kts | 122° |
| 2026-04-15 10:39 | 44.65514 | 11.90940 | 35151 ft | 444 kts | 122° |
| 2026-04-15 10:40 | 44.62120 | 11.98167 | 35151 ft | 444 kts | 122° |
| 2026-04-15 10:40 | 44.58736 | 12.05354 | 35159 ft | 444 kts | 122° |
| 2026-04-15 10:41 | 44.55326 | 12.12577 | 35124 ft | 443 kts | 122° |
| 2026-04-15 10:41 | 44.51929 | 12.19756 | 35145 ft | 439 kts | 124° |
| 2026-04-15 10:42 | 44.48561 | 12.26855 | 35148 ft | 439 kts | 124° |
| 2026-04-15 10:42 | 44.45181 | 12.33963 | 35150 ft | 439 kts | 124° |
| 2026-04-15 10:43 | 44.41793 | 12.41069 | 35138 ft | 439 kts | 124° |
| 2026-04-15 10:43 | 44.38409 | 12.48150 | 35136 ft | 435 kts | 124° |
| 2026-04-15 10:44 | 44.35058 | 12.55145 | 35137 ft | 433 kts | 124° |
| 2026-04-15 10:44 | 44.31701 | 12.62136 | 35137 ft | 433 kts | 125° |
| 2026-04-15 10:45 | 44.28339 | 12.69120 | 35126 ft | 434 kts | 124° |
| 2026-04-15 10:45 | 44.24952 | 12.76139 | 35137 ft | 437 kts | 125° |
| 2026-04-15 10:46 | 44.21571 | 12.83128 | 35121 ft | 434 kts | 125° |
| 2026-04-15 10:46 | 44.18194 | 12.90094 | 35125 ft | 434 kts | 125° |
| 2026-04-15 10:47 | 44.14813 | 12.97049 | 35127 ft | 434 kts | 125° |
| 2026-04-15 10:47 | 44.11430 | 13.03993 | 35117 ft | 433 kts | 125° |
| 2026-04-15 10:48 | 44.08047 | 13.10921 | 35111 ft | 434 kts | 125° |
| 2026-04-15 10:48 | 44.04680 | 13.17797 | 35106 ft | 431 kts | 126° |
| 2026-04-15 10:49 | 44.01294 | 13.24700 | 35105 ft | 429 kts | 126° |
| 2026-04-15 10:49 | 43.97924 | 13.31551 | 35108 ft | 430 kts | 126° |
| 2026-04-15 10:50 | 43.94557 | 13.38381 | 35103 ft | 429 kts | 126° |
| 2026-04-15 10:50 | 43.91201 | 13.45171 | 35116 ft | 430 kts | 126° |
| 2026-04-15 10:51 | 43.87819 | 13.51997 | 35088 ft | 429 kts | 126° |
| 2026-04-15 10:51 | 43.84435 | 13.58817 | 35108 ft | 430 kts | 126° |
| 2026-04-15 10:52 | 43.81046 | 13.65627 | 35101 ft | 430 kts | 126° |
| 2026-04-15 10:52 | 43.77654 | 13.72428 | 35088 ft | 429 kts | 126° |
| 2026-04-15 10:53 | 43.74268 | 13.79201 | 35089 ft | 428 kts | 126° |
| 2026-04-15 10:53 | 43.70896 | 13.85927 | 35087 ft | 427 kts | 126° |
| 2026-04-15 10:54 | 43.67511 | 13.92673 | 35086 ft | 428 kts | 126° |
| 2026-04-15 10:54 | 43.65815 | 13.96045 | 35225 ft | 429 kts | 126° |
| 2026-04-15 10:54 | 43.64114 | 13.99425 | 35450 ft | 429 kts | 126° |
| 2026-04-15 10:54 | 43.62438 | 14.02752 | 35648 ft | 429 kts | 126° |
| 2026-04-15 10:55 | 43.60734 | 14.06131 | 35913 ft | 428 kts | 126° |
| 2026-04-15 10:55 | 43.57274 | 14.12894 | 36157 ft | 433 kts | 130° |
| 2026-04-15 10:55 | 43.55144 | 14.15814 | 36299 ft | 433 kts | 138° |
| 2026-04-15 10:56 | 43.52957 | 14.18675 | 36488 ft | 433 kts | 136° |
| 2026-04-15 10:56 | 43.50788 | 14.21529 | 36691 ft | 434 kts | 136° |
| 2026-04-15 10:56 | 43.48599 | 14.24391 | 36882 ft | 434 kts | 136° |
| 2026-04-15 10:56 | 43.46407 | 14.27253 | 37011 ft | 435 kts | 136° |
| 2026-04-15 10:57 | 43.44212 | 14.30114 | 37242 ft | 435 kts | 136° |
| 2026-04-15 10:57 | 43.39857 | 14.35779 | 37494 ft | 435 kts | 136° |
| 2026-04-15 10:57 | 43.37659 | 14.38635 | 37711 ft | 434 kts | 136° |
| 2026-04-15 10:58 | 43.35464 | 14.41484 | 37951 ft | 433 kts | 136° |
| 2026-04-15 10:58 | 43.33315 | 14.44272 | 38190 ft | 431 kts | 136° |
| 2026-04-15 10:58 | 43.31136 | 14.47091 | 38420 ft | 430 kts | 136° |
| 2026-04-15 10:58 | 43.28967 | 14.49899 | 38669 ft | 427 kts | 135° |
| 2026-04-15 10:59 | 43.26808 | 14.52689 | 38872 ft | 425 kts | 135° |
| 2026-04-15 10:59 | 43.24663 | 14.55459 | 39038 ft | 423 kts | 136° |
| 2026-04-15 10:59 | 43.20347 | 14.61023 | 39067 ft | 428 kts | 136° |
| 2026-04-15 11:00 | 43.15973 | 14.66650 | 39074 ft | 434 kts | 136° |
| 2026-04-15 11:00 | 43.11545 | 14.72333 | 39069 ft | 440 kts | 136° |
| 2026-04-15 11:01 | 43.07067 | 14.78071 | 39069 ft | 441 kts | 135° |
| 2026-04-15 11:01 | 43.02595 | 14.83789 | 39062 ft | 441 kts | 136° |
| 2026-04-15 11:02 | 42.98113 | 14.89507 | 39054 ft | 441 kts | 136° |
| 2026-04-15 11:02 | 42.93624 | 14.95222 | 39061 ft | 442 kts | 135° |
| 2026-04-15 11:03 | 42.89141 | 15.00917 | 39058 ft | 440 kts | 135° |
| 2026-04-15 11:03 | 42.84661 | 15.06598 | 39059 ft | 439 kts | 136° |
| 2026-04-15 11:04 | 42.80176 | 15.12273 | 39065 ft | 440 kts | 136° |
| 2026-04-15 11:04 | 42.75694 | 15.17930 | 39057 ft | 441 kts | 136° |
| 2026-04-15 11:05 | 42.71226 | 15.23561 | 39056 ft | 440 kts | 136° |
| 2026-04-15 11:05 | 42.66707 | 15.29243 | 39058 ft | 439 kts | 136° |
| 2026-04-15 11:06 | 42.62237 | 15.34852 | 38973 ft | 437 kts | 136° |
| 2026-04-15 11:06 | 42.60044 | 15.37601 | 38814 ft | 436 kts | 136° |
| 2026-04-15 11:06 | 42.57789 | 15.40422 | 38615 ft | 435 kts | 136° |
| 2026-04-15 11:07 | 42.55590 | 15.43172 | 38404 ft | 436 kts | 136° |
| 2026-04-15 11:07 | 42.53355 | 15.45962 | 38191 ft | 437 kts | 136° |
| 2026-04-15 11:07 | 42.51129 | 15.48741 | 37980 ft | 435 kts | 136° |
| 2026-04-15 11:07 | 42.48903 | 15.51514 | 37762 ft | 435 kts | 136° |
| 2026-04-15 11:08 | 42.46679 | 15.54285 | 37559 ft | 434 kts | 136° |
| 2026-04-15 11:08 | 42.44461 | 15.57044 | 37356 ft | 432 kts | 137° |
| 2026-04-15 11:08 | 42.42246 | 15.59796 | 37154 ft | 432 kts | 137° |
| 2026-04-15 11:08 | 42.40039 | 15.62537 | 36950 ft | 433 kts | 137° |
| 2026-04-15 11:09 | 42.37817 | 15.65292 | 36764 ft | 432 kts | 137° |
| 2026-04-15 11:09 | 42.35601 | 15.68037 | 36555 ft | 433 kts | 137° |
| 2026-04-15 11:09 | 42.33388 | 15.70777 | 36343 ft | 427 kts | 137° |
| 2026-04-15 11:09 | 42.31220 | 15.73457 | 35952 ft | 420 kts | 137° |
| 2026-04-15 11:10 | 42.29068 | 15.76116 | 35388 ft | 419 kts | 138° |
| 2026-04-15 11:10 | 42.26922 | 15.78765 | 34777 ft | 415 kts | 138° |
| 2026-04-15 11:10 | 42.24814 | 15.81364 | 34215 ft | 405 kts | 138° |
| 2026-04-15 11:10 | 42.22769 | 15.83884 | 33693 ft | 394 kts | 138° |
| 2026-04-15 11:11 | 42.20775 | 15.86338 | 33194 ft | 384 kts | 138° |
| 2026-04-15 11:11 | 42.18812 | 15.88752 | 32752 ft | 380 kts | 138° |
| 2026-04-15 11:11 | 42.16864 | 15.91146 | 32276 ft | 377 kts | 138° |
| 2026-04-15 11:11 | 42.14931 | 15.93519 | 31826 ft | 374 kts | 138° |
| 2026-04-15 11:12 | 42.13012 | 15.95872 | 31388 ft | 372 kts | 137° |
| 2026-04-15 11:12 | 42.11107 | 15.98207 | 30931 ft | 369 kts | 137° |
| 2026-04-15 11:12 | 42.09215 | 16.00523 | 30509 ft | 367 kts | 138° |
| 2026-04-15 11:12 | 42.07332 | 16.02826 | 30075 ft | 365 kts | 137° |
| 2026-04-15 11:13 | 42.05458 | 16.05117 | 29571 ft | 363 kts | 137° |
| 2026-04-15 11:13 | 42.03608 | 16.07377 | 29138 ft | 359 kts | 137° |
| 2026-04-15 11:13 | 42.01762 | 16.09629 | 28725 ft | 356 kts | 138° |
| 2026-04-15 11:13 | 41.99942 | 16.11849 | 28323 ft | 352 kts | 138° |
| 2026-04-15 11:14 | 41.98134 | 16.14050 | 27923 ft | 349 kts | 138° |
| 2026-04-15 11:14 | 41.96347 | 16.16226 | 27531 ft | 346 kts | 138° |
| 2026-04-15 11:14 | 41.94572 | 16.18385 | 27152 ft | 342 kts | 138° |
| 2026-04-15 11:14 | 41.92812 | 16.20524 | 26776 ft | 339 kts | 138° |
| 2026-04-15 11:15 | 41.91070 | 16.22640 | 26409 ft | 337 kts | 138° |
| 2026-04-15 11:15 | 41.89339 | 16.24741 | 26049 ft | 334 kts | 138° |
| 2026-04-15 11:15 | 41.87625 | 16.26819 | 25693 ft | 331 kts | 138° |
| 2026-04-15 11:15 | 41.85929 | 16.28874 | 25338 ft | 329 kts | 138° |
| 2026-04-15 11:16 | 41.84240 | 16.30919 | 25002 ft | 326 kts | 139° |
| 2026-04-15 11:16 | 41.82560 | 16.32951 | 24657 ft | 324 kts | 139° |
| 2026-04-15 11:16 | 41.80893 | 16.34968 | 24321 ft | 322 kts | 139° |
| 2026-04-15 11:16 | 41.79237 | 16.36968 | 23991 ft | 319 kts | 139° |
| 2026-04-15 11:17 | 41.77595 | 16.38951 | 23660 ft | 317 kts | 139° |
| 2026-04-15 11:17 | 41.75963 | 16.40920 | 23285 ft | 315 kts | 139° |
| 2026-04-15 11:17 | 41.74345 | 16.42871 | 22939 ft | 311 kts | 139° |
| 2026-04-15 11:17 | 41.72756 | 16.44786 | 22617 ft | 307 kts | 139° |
| 2026-04-15 11:18 | 41.71176 | 16.46688 | 22298 ft | 304 kts | 139° |
| 2026-04-15 11:18 | 41.69611 | 16.48571 | 22005 ft | 303 kts | 139° |
| 2026-04-15 11:18 | 41.68027 | 16.50475 | 21698 ft | 308 kts | 139° |
| 2026-04-15 11:18 | 41.66429 | 16.52395 | 21394 ft | 311 kts | 139° |
| 2026-04-15 11:19 | 41.64839 | 16.54304 | 21077 ft | 311 kts | 139° |
| 2026-04-15 11:19 | 41.63233 | 16.56231 | 20762 ft | 310 kts | 139° |
| 2026-04-15 11:19 | 41.61634 | 16.58147 | 20453 ft | 308 kts | 139° |
| 2026-04-15 11:19 | 41.60022 | 16.60079 | 20140 ft | 307 kts | 139° |
| 2026-04-15 11:20 | 41.58460 | 16.61950 | 19833 ft | 304 kts | 139° |
| 2026-04-15 11:20 | 41.56892 | 16.63827 | 19536 ft | 301 kts | 139° |
| 2026-04-15 11:20 | 41.55344 | 16.65679 | 19233 ft | 298 kts | 139° |
| 2026-04-15 11:20 | 41.53808 | 16.67514 | 18937 ft | 295 kts | 139° |
| 2026-04-15 11:21 | 41.52292 | 16.69326 | 18647 ft | 292 kts | 139° |
| 2026-04-15 11:21 | 41.50785 | 16.71124 | 18342 ft | 289 kts | 139° |
| 2026-04-15 11:21 | 41.49296 | 16.72901 | 18023 ft | 286 kts | 139° |
| 2026-04-15 11:21 | 41.47812 | 16.74670 | 17719 ft | 290 kts | 139° |
| 2026-04-15 11:22 | 41.46297 | 16.76475 | 17418 ft | 295 kts | 139° |
| 2026-04-15 11:22 | 41.44768 | 16.78296 | 17128 ft | 295 kts | 139° |
| 2026-04-15 11:22 | 41.43237 | 16.80118 | 16835 ft | 294 kts | 139° |
| 2026-04-15 11:22 | 41.41713 | 16.81931 | 16539 ft | 293 kts | 139° |
| 2026-04-15 11:23 | 41.40200 | 16.83729 | 16245 ft | 290 kts | 139° |
| 2026-04-15 11:23 | 41.38707 | 16.85502 | 15944 ft | 286 kts | 139° |
| 2026-04-15 11:23 | 41.37319 | 16.87393 | 15631 ft | 286 kts | 131° |
| 2026-04-15 11:23 | 41.36026 | 16.89405 | 15337 ft | 285 kts | 132° |
| 2026-04-15 11:24 | 41.34731 | 16.91389 | 15060 ft | 283 kts | 132° |
| 2026-04-15 11:24 | 41.33442 | 16.93346 | 14773 ft | 280 kts | 133° |
| 2026-04-15 11:24 | 41.32161 | 16.95278 | 14494 ft | 277 kts | 133° |
| 2026-04-15 11:24 | 41.30897 | 16.97179 | 14218 ft | 274 kts | 133° |
| 2026-04-15 11:25 | 41.29640 | 16.99065 | 13940 ft | 271 kts | 133° |
| 2026-04-15 11:25 | 41.28393 | 17.00934 | 13642 ft | 269 kts | 133° |
| 2026-04-15 11:25 | 41.27566 | 17.02171 | 13450 ft | 272 kts | 133° |
| 2026-04-15 11:25 | 41.26298 | 17.04068 | 13166 ft | 277 kts | 133° |
| 2026-04-15 11:26 | 41.25014 | 17.05988 | 12879 ft | 278 kts | 133° |
| 2026-04-15 11:26 | 41.23728 | 17.07908 | 12595 ft | 278 kts | 133° |
| 2026-04-15 11:26 | 41.22446 | 17.09822 | 12317 ft | 277 kts | 133° |
| 2026-04-15 11:26 | 41.21166 | 17.11732 | 12033 ft | 277 kts | 133° |
| 2026-04-15 11:27 | 41.19886 | 17.13641 | 11749 ft | 276 kts | 133° |
| 2026-04-15 11:27 | 41.18608 | 17.15544 | 11468 ft | 276 kts | 133° |
| 2026-04-15 11:27 | 41.17330 | 17.17447 | 11162 ft | 276 kts | 133° |
| 2026-04-15 11:27 | 41.16057 | 17.19342 | 10864 ft | 274 kts | 133° |
| 2026-04-15 11:28 | 41.14799 | 17.21212 | 10598 ft | 270 kts | 133° |
| 2026-04-15 11:28 | 41.13561 | 17.23052 | 10326 ft | 267 kts | 133° |
| 2026-04-15 11:28 | 41.12336 | 17.24871 | 10123 ft | 261 kts | 133° |
| 2026-04-15 11:28 | 41.11137 | 17.26651 | 9914 ft | 257 kts | 133° |
| 2026-04-15 11:29 | 41.09951 | 17.28411 | 9618 ft | 255 kts | 133° |
| 2026-04-15 11:29 | 41.08776 | 17.30154 | 9337 ft | 252 kts | 133° |
| 2026-04-15 11:29 | 41.07614 | 17.31875 | 9081 ft | 249 kts | 133° |
| 2026-04-15 11:29 | 41.06467 | 17.33574 | 8816 ft | 246 kts | 133° |
| 2026-04-15 11:30 | 41.05311 | 17.35285 | 8567 ft | 252 kts | 133° |
| 2026-04-15 11:30 | 41.04130 | 17.37033 | 8307 ft | 256 kts | 133° |
| 2026-04-15 11:30 | 41.02941 | 17.38790 | 8043 ft | 256 kts | 132° |
| 2026-04-15 11:30 | 41.01752 | 17.40547 | 7767 ft | 256 kts | 132° |
| 2026-04-15 11:31 | 41.00567 | 17.42297 | 7507 ft | 256 kts | 132° |
| 2026-04-15 11:31 | 40.99379 | 17.44050 | 7215 ft | 255 kts | 132° |
| 2026-04-15 11:31 | 40.98197 | 17.45793 | 6923 ft | 254 kts | 132° |
| 2026-04-15 11:31 | 40.97025 | 17.47520 | 6643 ft | 252 kts | 132° |
| 2026-04-15 11:32 | 40.95860 | 17.49236 | 6371 ft | 250 kts | 132° |
| 2026-04-15 11:32 | 40.94705 | 17.50936 | 6089 ft | 247 kts | 132° |
| 2026-04-15 11:32 | 40.93561 | 17.52619 | 5824 ft | 245 kts | 132° |
| 2026-04-15 11:32 | 40.92429 | 17.54283 | 5560 ft | 242 kts | 133° |
| 2026-04-15 11:33 | 40.91309 | 17.55930 | 5310 ft | 239 kts | 133° |
| 2026-04-15 11:33 | 40.90217 | 17.57535 | 5057 ft | 236 kts | 133° |
| 2026-04-15 11:33 | 40.89157 | 17.59212 | 4818 ft | 234 kts | 124° |
| 2026-04-15 11:33 | 40.88472 | 17.61163 | 4532 ft | 236 kts | 108° |
| 2026-04-15 11:34 | 40.88082 | 17.63234 | 4291 ft | 236 kts | 107° |
| 2026-04-15 11:34 | 40.87672 | 17.65355 | 4089 ft | 239 kts | 107° |
| 2026-04-15 11:34 | 40.87257 | 17.67445 | 3961 ft | 231 kts | 109° |
| 2026-04-15 11:34 | 40.86516 | 17.69237 | 3803 ft | 219 kts | 134° |
| 2026-04-15 11:35 | 40.85507 | 17.70658 | 3686 ft | 210 kts | 135° |
| 2026-04-15 11:35 | 40.84527 | 17.72027 | 3578 ft | 201 kts | 135° |
| 2026-04-15 11:35 | 40.83581 | 17.73328 | 3477 ft | 197 kts | 136° |
| 2026-04-15 11:35 | 40.82658 | 17.74586 | 3419 ft | 184 kts | 136° |
| 2026-04-15 11:36 | 40.81747 | 17.75704 | 3318 ft | 173 kts | 143° |
| 2026-04-15 11:36 | 40.80826 | 17.76659 | 3191 ft | 165 kts | 143° |
| 2026-04-15 11:36 | 40.79938 | 17.77585 | 3023 ft | 161 kts | 143° |
| 2026-04-15 11:36 | 40.79078 | 17.78522 | 2808 ft | 160 kts | 139° |
| 2026-04-15 11:37 | 40.78276 | 17.79485 | 2650 ft | 158 kts | 139° |
| 2026-04-15 11:37 | 40.77468 | 17.80455 | 2584 ft | 157 kts | 139° |
| 2026-04-15 11:37 | 40.76662 | 17.81428 | 2524 ft | 157 kts | 138° |
| 2026-04-15 11:37 | 40.75864 | 17.82410 | 2322 ft | 157 kts | 138° |
| 2026-04-15 11:38 | 40.75067 | 17.83390 | 2073 ft | 156 kts | 137° |
| 2026-04-15 11:38 | 40.74274 | 17.84364 | 1852 ft | 152 kts | 137° |
| 2026-04-15 11:38 | 40.73544 | 17.85261 | 1688 ft | 138 kts | 137° |
| 2026-04-15 11:38 | 40.72848 | 17.86113 | 1465 ft | 136 kts | 137° |
| 2026-04-15 11:39 | 40.72159 | 17.86959 | 1265 ft | 135 kts | 136° |
| 2026-04-15 11:39 | 40.71469 | 17.87804 | 1072 ft | 136 kts | 136° |
| 2026-04-15 11:39 | 40.70775 | 17.88655 | 888 ft | 136 kts | 136° |
| 2026-04-15 11:39 | 40.70074 | 17.89500 | 696 ft | 138 kts | 135° |
| 2026-04-15 11:40 | 40.69359 | 17.90365 | 542 ft | 140 kts | 134° |
| 2026-04-15 11:40 | 40.68645 | 17.91255 | 410 ft | 141 kts | 135° |
| 2026-04-15 11:40 | 40.67930 | 17.92144 | 174 ft | 142 kts | 136° |
| 2026-04-15 11:40 | 40.67202 | 17.93027 | 50 ft | 140 kts | 136° |
| 2026-04-15 11:41 | 40.66629 | 17.93726 | 42 ft | 80 kts | 137° |
| 2026-04-15 11:41 | 40.66313 | 17.94110 | 44 ft | 57 kts | 137° |
| 2026-04-15 11:41 | 40.66030 | 17.94457 | 42 ft | 54 kts | 137° |
| 2026-04-15 11:41 | 40.65908 | 17.94502 | 41 ft | 11 kts | 233° |
| 2026-04-15 11:42 | 40.65866 | 17.94425 | 45 ft | 11 kts | 233° |
| 2026-04-15 11:42 | 40.65817 | 17.94343 | 46 ft | 12 kts | 231° |
| 2026-04-15 11:42 | 40.65760 | 17.94245 | 46 ft | 15 kts | 233° |
| 2026-04-15 11:42 | 40.65716 | 17.94150 | 46 ft | 10 kts | 272° |
| 2026-04-15 11:43 | 40.65742 | 17.94110 | 46 ft | 4 kts | 337° |
| 2026-04-15 11:43 | 40.65772 | 17.94083 | 46 ft | 5 kts | 321° |
| 2026-04-15 11:43 | 40.65785 | 17.94070 | 46 ft | 0 kts | 322° |